Weather observations for the past three days for
Mountain View, Moffett Field
Imperial (Metric)
Date Time (pdt) Wind (mph) Vis. (mi.) Weather Sky Cond. Temperature (ºF) Relative Humidity Wind Chill (°F) Heat Index (°F) Pressure Precipitation (in)
Air Dwpt 6 hour altimeter (in) sea level (mb) 1 hr 3 hr 6 hr
Max. Min.
03 13:55 N 9 10.00 Mostly Cloudy BKN120 75.2 57.2 54% 78 29.92 0.0
03 13:35 N 10 10.00 Partly Cloudy FEW070 SCT120 75.2 55.4 50% 78 29.93 0.0
03 13:15 N 10 10.00 Mostly Cloudy FEW070 BKN120 75.2 57.2 54% 78 29.93 0.0
03 12:55 N 13 10.00 Mostly Cloudy SCT041 BKN120 75.2 55.4 50% 78 29.94 0.0
03 12:35 N 8 10.00 Overcast OVC042 73.4 55.4 53% 29.94 0.0
03 12:15 Vrbl 5 9.00 Overcast BKN043 OVC120 75.2 55.4 50% 78 29.95 0.0
03 11:55 Calm 10.00 Mostly Cloudy BKN120 75.2 53.6 47% 78 29.95 0.0
03 11:35 Calm 9.00 Partly Cloudy SCT120 73.4 53.6 50% 29.96 0.0
03 11:15 Calm 10.00 Mostly Cloudy BKN120 73.4 53.6 50% 29.96 0.0
03 10:55 Vrbl 5 10.00 Mostly Cloudy BKN120 73.4 53.6 50% 29.96 0.0
03 10:35 Calm 10.00 Mostly Cloudy BKN120 69.8 53.6 57% 29.97 0.0
03 10:15 E 3 10.00 Mostly Cloudy BKN120 68 53.6 60% 29.98 0.0
03 09:55 SE 5 10.00 Mostly Cloudy BKN120 68 53.6 60% 29.98 0.0
03 09:35 Vrbl 5 10.00 Mostly Cloudy BKN120 66.2 55.4 68% 29.99 0.0
03 09:15 SE 7 10.00 A Few Clouds FEW120 66.2 55.4 68% 29.98 0.0
03 08:55 SE 6 10.00 Fair CLR 64.4 55.4 73% 29.99 0.0
03 08:35 SE 6 9.00 Fair CLR 62.6 53.6 73% 29.99 0.0
03 08:10 S 5 9.00 Fair CLR 62.6 51.8 68% 29.99 0.0
03 07:55 S 6 10.00 Fair CLR 60.8 51.8 72% 29.99 0.0
03 07:35 S 5 9.00 Fair CLR 59 51.8 77% 29.99 0.0
03 07:15 S 5 9.00 Fair CLR 59 51.8 77% 29.99 0.0
03 06:55 SE 5 10.00 Fair CLR 57.2 51.8 82% 29.99 0.0
03 06:35 Calm 9.00 Fair CLR 57.2 51.8 82% 29.99 0.0
03 06:15 Calm 10.00 Fair CLR 57.2 51.8 82% 29.98 0.0
03 05:55 Calm 10.00 Fair CLR 57.2 51.8 82% 29.99 0.0
03 05:35 Calm 10.00 Fair CLR 59 51.8 77% 29.99 0.0
03 05:15 Calm 10.00 Fair CLR 59 51.8 77% 29.99 0.0
03 04:55 Calm 10.00 Fair CLR 59 53.6 82% 29.99 0.0
03 04:35 Calm 10.00 Fair CLR 57.2 51.8 82% 29.99 0.0
03 04:15 Calm 10.00 Fair CLR 59 53.6 82% 30 0.0
03 03:55 Calm 10.00 Fair CLR 59 53.6 82% 30.01 0.0
03 03:35 Calm 10.00 Fair CLR 59 53.6 82% 30.01 0.0
03 03:15 Calm 10.00 Fair CLR 59 53.6 82% 30.01 0.0
03 02:55 S 3 10.00 Fair CLR 60.8 53.6 77% 30.01 0.0
03 02:30 Calm 10.00 Fair CLR 60.8 53.6 77% 30.01 0.0
03 02:15 S 5 10.00 Fair CLR 60.8 53.6 77% 30.02 0.0
03 01:55 S 3 9.00 Fair CLR 60.8 55.4 83% 30.02 0.0
03 01:35 S 3 9.00 Fair CLR 60.8 55.4 83% 30.02 0.0
03 01:15 Calm 9.00 Fair CLR 60.8 55.4 83% 30.02 0.0
03 00:55 S 3 9.00 Fair CLR 60.8 55.4 83% 30.02 0.0
03 00:30 Calm 10.00 Fair CLR 60.8 55.4 83% 30.02 0.0
03 00:15 Calm 10.00 Fair CLR 60.8 55.4 83% 30.02 0.0
02 23:55 NW 5 9.00 Fair CLR 60.8 55.4 83% 30.02 0.0
02 23:35 N 6 10.00 Fair CLR 62.6 55.4 77% 30.02 0.0
02 23:15 N 5 10.00 Fair CLR 62.6 55.4 77% 30.02 0.0
02 22:55 N 5 10.00 Fair CLR 62.6 55.4 77% 30.03 0.0
02 22:35 NW 5 10.00 Fair CLR 62.6 55.4 77% 30.03 0.0
02 22:15 NW 3 10.00 Fair CLR 62.6 53.6 73% 30.03 0.0
02 21:55 NW 6 10.00 Fair CLR 64.4 53.6 68% 30.03 0.0
02 21:35 N 8 10.00 Fair CLR 64.4 53.6 68% 30.03 0.0
02 21:15 N 8 10.00 Fair CLR 64.4 55.4 73% 30.02 0.0
02 20:55 N 6 10.00 Fair CLR 64.4 55.4 73% 30.01 0.0
02 20:35 NW 5 10.00 A Few Clouds FEW038 64.4 53.6 68% 30.01 0.0
02 20:15 NW 6 10.00 Fair CLR 66.2 53.6 64% 30.01 0.0
02 19:55 N 9 10.00 Fair CLR 66.2 53.6 64% 30 0.0
02 19:35 NW 10 10.00 Fair CLR 66.2 53.6 64% 30 0.0
02 19:15 N 13 10.00 Fair CLR 68 51.8 56% 29.99 0.0
02 18:55 NW 7 10.00 Fair CLR 71.6 48.2 44% 30 0.0
02 18:35 NW 7 G 15 10.00 Fair CLR 71.6 51.8 50% 29.99 0.0
02 18:15 Vrbl 7 G 18 10.00 Fair CLR 71.6 51.8 50% 29.99 0.0
02 17:55 N 18 10.00 Fair CLR 71.6 55.4 57% 29.99 0.0
02 17:35 N 16 G 22 10.00 Fair CLR 73.4 55.4 53% 29.99 0.0
02 17:15 NW 9 G 17 10.00 Fair CLR 73.4 53.6 50% 29.99 0.0
02 16:55 NW 14 G 21 10.00 Fair CLR 73.4 55.4 53% 29.99 0.0
02 16:35 NW 17 10.00 Fair CLR 73.4 55.4 53% 29.99 0.0
02 16:15 N 18 9.00 A Few Clouds FEW048 FEW055 75.2 57.2 54% 78 29.99 0.0
02 15:55 N 16 10.00 Mostly Cloudy SCT048 BKN055 75.2 57.2 54% 78 30 0.0
02 15:35 N 17 G 25 10.00 Mostly Cloudy BKN048 BKN060 73.4 57.2 57% 30.01 0.0
02 15:15 NW 12 10.00 Overcast BKN048 OVC055 75.2 57.2 54% 78 30 0.0
02 14:55 NW 6 10.00 Mostly Cloudy SCT050 BKN055 77 57.2 51% 79 30.01 0.0
02 14:35 Vrbl 6 G 15 10.00 Mostly Cloudy FEW040 SCT048 BKN055 77 53.6 44% 78 30.02 0.0
02 14:15 NW 8 10.00 Mostly Cloudy BKN040 BKN049 75.2 57.2 54% 78 30.02 0.0
02 13:55 N 8 G 15 10.00 Overcast BKN043 BKN050 OVC055 75.2 57.2 54% 78 30.03 0.0
02 13:35 N 10 9.00 Overcast BKN044 BKN055 OVC065 73.4 57.2 57% 30.03 0.0
02 13:15 N 12 G 20 10.00 Overcast BKN044 BKN049 OVC060 73.4 57.2 57% 30.04 0.0
02 12:55 N 7 10.00 Overcast BKN045 OVC060 73.4 55.4 53% 30.04 0.0
02 12:35 N 6 10.00 Overcast BKN044 OVC050 73.4 55.4 53% 30.04 0.0
02 12:15 NW 6 10.00 Overcast OVC041 73.4 55.4 53% 30.04 0.0
02 11:55 N 5 10.00 Overcast OVC039 73.4 55.4 53% 30.04 0.0
02 11:35 Vrbl 6 G 14 9.00 Mostly Cloudy BKN039 BKN045 73.4 55.4 53% 30.05 0.0
02 11:15 SE 6 G 14 10.00 Partly Cloudy SCT038 73.4 55.4 53% 30.04 0.0
02 10:55 S 8 10.00 Mostly Cloudy BKN037 BKN070 73.4 55.4 53% 30.04 0.0
02 10:35 Vrbl 3 10.00 Partly Cloudy FEW036 SCT070 71.6 53.6 53% 30.04 0.0
02 10:15 SE 6 9.00 Mostly Cloudy FEW036 BKN065 71.6 55.4 57% 30.04 0.0
02 09:55 Vrbl 5 10.00 Overcast FEW034 OVC065 68 53.6 60% 30.05 0.0
02 09:30 SE 6 10.00 Mostly Cloudy BKN065 66.2 53.6 64% 30.04 0.0
02 09:15 SE 6 10.00 Mostly Cloudy SCT060 BKN070 64.4 53.6 68% 30.04 0.0
02 08:55 SE 6 10.00 Mostly Cloudy BKN065 64.4 53.6 68% 30.05 0.0
02 08:35 SE 3 10.00 Overcast BKN060 OVC070 62.6 53.6 73% 30.05 0.0
02 08:15 S 6 10.00 Overcast OVC060 60.8 53.6 77% 30.04 0.0
02 07:55 SE 6 10.00 Overcast OVC055 60.8 51.8 72% 30.03 0.0
02 07:35 S 5 10.00 Overcast OVC055 60.8 51.8 72% 30.04 0.0
02 07:15 SE 6 10.00 Overcast OVC055 60.8 51.8 72% 30.03 0.0
02 06:55 SE 6 10.00 Overcast OVC050 60.8 51.8 72% 30.02 0.0
02 06:35 SE 6 10.00 Overcast BKN050 OVC065 60.8 51.8 72% 30.02 0.0
02 06:15 Vrbl 5 10.00 Overcast SCT050 OVC065 60.8 51.8 72% 30.02 0.0
02 05:50 S 6 10.00 Overcast OVC050 60.8 51.8 72% 30.02 0.0
02 05:35 S 5 10.00 Overcast OVC050 59 51.8 77% 30.02 0.0
02 05:15 SE 6 10.00 Mostly Cloudy BKN050 59 51.8 77% 30.01 0.0
02 04:55 SE 6 10.00 Partly Cloudy SCT050 59 51.8 77% 30.02 0.0
02 04:35 SE 6 10.00 Overcast OVC050 59 51.8 77% 30.02 0.0
02 04:15 SE 7 10.00 Mostly Cloudy BKN055 59 51.8 77% 30.03 0.0
02 03:55 SE 6 10.00 Fair CLR 59 51.8 77% 30.03 0.0
02 03:35 SE 5 10.00 Fair CLR 59 51.8 77% 30.03 0.0
02 03:15 SE 5 10.00 Fair CLR 59 50 72% 30.02 0.0
02 02:55 SE 5 10.00 Fair CLR 59 50 72% 30.02 0.0
02 02:35 Calm 10.00 Fair CLR 59 50 72% 30.02 0.0
02 02:15 Calm 10.00 Fair CLR 59 50 72% 30.02 0.0
02 01:55 Calm 10.00 Fair CLR 59 50 72% 30.03 0.0
02 01:35 Calm 10.00 Fair CLR 60.8 50 68% 30.03 0.0
02 01:15 Calm 10.00 Fair CLR 60.8 50 68% 30.02 0.0
02 00:55 SW 5 10.00 Fair CLR 62.6 50 64% 30.03 0.0
02 00:35 S 5 10.00 Fair CLR 62.6 50 64% 30.03 0.0
02 00:15 Calm 10.00 Fair CLR 62.6 53.6 73% 30.03 0.0
01 23:55 Calm 10.00 Fair CLR 62.6 53.6 73% 30.03 0.0
01 23:35 Calm 10.00 Fair CLR 62.6 53.6 73% 30.02 0.0
01 23:15 Calm 10.00 Fair CLR 62.6 53.6 73% 30.02 0.0
01 22:55 SE 3 10.00 Fair CLR 62.6 51.8 68% 30.02 0.0
01 22:35 E 7 10.00 Fair CLR 62.6 51.8 68% 30.03 0.0
01 22:15 W 6 10.00 Fair CLR 64.4 51.8 64% 30.03 0.0
01 21:55 W 6 10.00 Fair CLR 64.4 51.8 64% 30.03 0.0
01 21:35 W 7 10.00 Fair CLR 64.4 51.8 64% 30.03 0.0
01 21:15 W 6 10.00 Fair CLR 64.4 51.8 64% 30.03 0.0
01 20:55 W 7 10.00 Fair CLR 64.4 51.8 64% 30.02 0.0
01 20:30 W 12 10.00 Fair CLR 64.4 51.8 64% 30.02 0.0
01 20:15 W 12 10.00 Fair CLR 64.4 51.8 64% 30.01 0.0
01 19:55 W 10 10.00 Fair CLR 66.2 51.8 60% 30.01 0.0
01 19:35 W 9 G 17 10.00 Fair CLR 66.2 51.8 60% 30 0.0
01 19:15 W 10 G 17 10.00 Fair CLR 68 50 53% 30 0.0
01 18:55 W 9 G 17 10.00 Fair CLR 68 50 53% 30 0.0
01 18:35 W 10 G 16 10.00 Fair CLR 69.8 48.2 46% 29.99 0.0
01 18:15 W 12 9.00 Fair CLR 69.8 48.2 46% 29.99 0.0
01 17:55 NW 10 G 21 10.00 Fair CLR 69.8 48.2 46% 29.99 0.0
01 17:35 W 10 G 20 10.00 Fair CLR 69.8 48.2 46% 29.99 0.0
01 17:15 NW 13 10.00 A Few Clouds FEW050 71.6 48.2 44% 29.99 0.0
01 16:50 NW 12 G 21 10.00 Mostly Cloudy BKN055 71.6 48.2 44% 29.99 0.0
01 16:35 W 12 G 20 10.00 Overcast OVC055 71.6 46.4 41% 29.99 0.0
01 16:15 W 8 G 15 10.00 Mostly Cloudy BKN055 73.4 46.4 38% 29.99 0.0
01 15:55 N 26 10.00 A Few Clouds and Windy FEW055 71.6 50 47% 29.98 0.0
01 15:35 N 16 G 23 10.00 Fair CLR 71.6 50 47% 29.99 0.0
01 15:15 N 15 G 22 10.00 Fair CLR 71.6 50 47% 30 0.0
01 14:55 N 15 10.00 A Few Clouds FEW055 71.6 50 47% 30 0.0
01 14:35 N 15 10.00 Partly Cloudy SCT055 71.6 50 47% 30 0.0
01 14:15 N 13 10.00 A Few Clouds FEW050 71.6 50 47% 30 0.0
01 13:55 NE 9 10.00 A Few Clouds FEW050 71.6 48.2 44% 30 0.0
01 13:35 N 12 10.00 A Few Clouds FEW050 69.8 50 50% 30 0.0
01 13:15 N 13 10.00 Partly Cloudy SCT050 71.6 50 47% 30.01 0.0
01 12:55 N 16 10.00 Mostly Cloudy BKN046 BKN050 69.8 50 50% 30.02 0.0
01 12:35 N 3 G 12 9.00 Mostly Cloudy SCT042 BKN049 69.8 50 50% 30.02 0.0
01 12:15 N 8 G 14 10.00 Overcast BKN042 OVC050 68 48.2 49% 30.03 0.0
01 11:55 Vrbl 3 10.00 Overcast OVC049 69.8 50 50% 30.03 0.0
01 11:35 Calm 10.00 NULL NULL 68 50 53% 30.03 0.0
01 10:55 W 5 10.00 Overcast OVC044 68 48.2 49% 30.03 0.0
01 10:35 N 5 10.00 Overcast OVC043 66.2 48.2 52% 30.03 0.0
01 10:15 Calm 10.00 Overcast OVC044 66.2 46.4 49% 30.02 0.0
01 09:55 Calm 10.00 Overcast OVC041 66.2 46.4 49% 30.02 0.0
01 09:35 Vrbl 3 10.00 Overcast OVC040 66.2 46.4 49% 30.02 0.0
01 09:15 Vrbl 5 10.00 Overcast OVC041 64.4 46.4 52% 30.01 0.0
01 08:55 SW 6 10.00 Overcast OVC041 64.4 46.4 52% 30.01 0.0
01 08:35 Vrbl 3 10.00 Overcast OVC041 64.4 46.4 52% 30.01 0.0
01 08:15 SW 5 10.00 Overcast OVC040 64.4 46.4 52% 30 0.0
01 07:55 SW 6 9.00 Overcast OVC040 62.6 48.2 60% 30 0.0
01 07:35 SW 6 10.00 Overcast OVC041 62.6 48.2 60% 29.99 0.0
01 07:15 SW 5 9.00 Overcast OVC040 62.6 48.2 60% 29.98 0.0
01 06:55 S 5 10.00 Overcast OVC039 62.6 48.2 60% 29.98 0.0
01 06:35 S 6 10.00 Overcast OVC039 62.6 48.2 60% 29.97 0.0
01 06:15 SW 5 10.00 Overcast OVC039 62.6 48.2 60% 29.97 0.0
01 05:55 S 6 10.00 Overcast OVC037 62.6 48.2 60% 29.96 0.0
01 05:35 Vrbl 5 10.00 Overcast OVC036 62.6 48.2 60% 29.97 0.0
01 05:15 Calm 10.00 Overcast OVC036 62.6 48.2 60% 29.96 0.0
01 04:55 S 3 10.00 Overcast OVC037 62.6 48.2 60% 29.96 0.0
01 04:35 S 6 10.00 Overcast OVC035 62.6 50 64% 29.97 0.0
01 04:15 Vrbl 3 10.00 Overcast OVC033 62.6 50 64% 29.97 0.0
01 03:55 Vrbl 5 10.00 Overcast OVC033 62.6 48.2 60% 29.97 0.0
01 03:30 Calm 10.00 Overcast OVC032 62.6 50 64% 29.97 0.0
01 03:15 W 3 10.00 Overcast OVC032 60.8 50 68% 29.96 0.0
01 02:55 Calm 10.00 Overcast OVC031 60.8 50 68% 29.96 0.0
01 02:35 W 5 10.00 Overcast OVC031 60.8 50 68% 29.96 0.0
01 02:15 Calm 10.00 Overcast OVC033 60.8 50 68% 29.96 0.0
01 01:55 Calm 10.00 Overcast BKN028 OVC033 60.8 50 68% 29.96 0.0
01 01:35 Calm 10.00 Overcast OVC026 60.8 50 68% 29.96 0.0
01 01:15 Calm 10.00 Overcast OVC031 60.8 50 68% 29.96 0.0
01 00:55 W 3 10.00 Overcast BKN026 OVC033 60.8 50 68% 29.96 0.0
01 00:35 W 3 10.00 Overcast BKN025 OVC032 60.8 50 68% 29.96 0.0
01 00:15 W 7 10.00 Overcast OVC032 60.8 50 68% 29.96 0.0
31 23:50 W 3 10.00 Overcast OVC032 60.8 50 68% 29.96 0.0
31 23:35 W 3 10.00 Overcast OVC032 60.8 50 68% 29.96 0.0
31 23:15 W 6 10.00 Overcast OVC032 62.6 50 64% 29.96 0.0
31 22:55 W 6 10.00 Overcast OVC032 60.8 51.8 72% 29.97 0.0
31 22:35 W 7 9.00 Overcast OVC032 60.8 51.8 72% 29.97 0.0
31 22:15 W 5 10.00 Overcast OVC032 60.8 51.8 72% 29.97 0.0
31 21:55 Calm 9.00 Overcast OVC030 60.8 51.8 72% 29.96 0.0
31 21:35 Vrbl 5 10.00 Overcast OVC029 60.8 51.8 72% 29.95 0.0
31 21:15 Vrbl 5 10.00 Overcast OVC030 60.8 51.8 72% 29.95 0.0
31 20:55 Vrbl 6 G 12 10.00 Overcast OVC031 62.6 51.8 68% 29.95 0.0
31 20:35 W 5 10.00 Overcast OVC030 62.6 51.8 68% 29.94 0.0
31 20:15 W 10 10.00 Mostly Cloudy BKN030 BKN034 62.6 51.8 68% 29.93 0.0
31 19:55 W 7 10.00 A Few Clouds FEW033 62.6 51.8 68% 29.93 0.0
31 19:35 Vrbl 7 10.00 Fair CLR 64.4 51.8 64% 29.92 0.0
31 19:15 NW 7 G 14 10.00 Fair CLR 64.4 51.8 64% 29.92 0.0
31 18:55 NW 8 G 16 10.00 Fair CLR 64.4 51.8 64% 29.92 0.0
31 18:30 N 14 10.00 Fair CLR 64.4 51.8 64% 29.92 0.0
31 18:15 N 14 10.00 Fair CLR 66.2 51.8 60% 29.92 0.0
31 17:55 N 15 10.00 Fair CLR 66.2 53.6 64% 29.92 0.0
31 17:35 N 16 G 23 10.00 Fair CLR 68 51.8 56% 29.91 0.0
31 17:15 N 15 G 22 10.00 Fair CLR 68 51.8 56% 29.91 0.0
31 16:35 N 17 9.00 Fair CLR 68 53.6 60% 29.92 0.0
31 16:15 N 16 G 23 9.00 Fair CLR 69.8 53.6 57% 29.92 0.0
31 15:55 N 17 10.00 Fair CLR 69.8 53.6 57% 29.92 0.0
31 15:35 N 17 10.00 Fair CLR 69.8 53.6 57% 29.92 0.0
31 15:15 N 22 10.00 Fair and Breezy CLR 69.8 53.6 57% 29.93 0.0
31 14:55 N 17 G 25 10.00 Fair CLR 69.8 53.6 57% 29.93 0.0
31 14:35 N 17 G 24 10.00 Fair CLR 69.8 53.6 57% 29.94 0.0
31 14:15 NW 9 G 18 10.00 A Few Clouds FEW034 69.8 53.6 57% 29.95 0.0
Date Time (pdt) Wind (mph) Vis. (mi.) Weather Sky Cond. Air Dwpt Max. Min. Relative Humidity Wind Chill (°F) Heat Index (°F) altimeter (in) sea level (mb) 1 hr 3 hr 6 hr
6 hour
Temperature (ºF) Pressure Precipitation (in)